createdAt,value
2023-05-16T00:04:50.125Z,13.00
2023-05-16T00:11:32.436Z,12.80
2023-05-16T00:18:16.827Z,12.60
2023-05-16T00:24:59.081Z,12.60
2023-05-16T00:31:41.604Z,12.50
2023-05-16T00:38:26.072Z,12.60
2023-05-16T00:45:09.254Z,12.50
2023-05-16T00:51:53.613Z,12.60
2023-05-16T00:58:37.596Z,12.70
2023-05-16T01:05:21.188Z,12.70
2023-05-16T01:12:14.881Z,12.70
2023-05-16T01:19:35.768Z,12.70
2023-05-16T01:26:28.035Z,12.60
2023-05-16T01:33:10.982Z,12.40
2023-05-16T01:40:07.789Z,12.10
2023-05-16T01:46:55.033Z,12.10
2023-05-16T01:53:39.283Z,12.00
2023-05-16T02:00:22.066Z,12.10
2023-05-16T02:07:04.768Z,12.10
2023-05-16T02:13:47.115Z,12.10
2023-05-16T02:20:29.516Z,12.10
2023-05-16T02:27:11.808Z,12.20
2023-05-16T02:33:54.157Z,12.30
2023-05-16T02:40:36.804Z,12.40
2023-05-16T02:47:19.245Z,12.40
2023-05-16T02:54:01.818Z,12.30
2023-05-16T03:00:44.120Z,12.30
2023-05-16T03:07:26.409Z,12.30
2023-05-16T03:14:09.383Z,12.20
2023-05-16T03:20:53.052Z,12.10
2023-05-16T03:27:35.457Z,12.00
2023-05-16T03:34:17.766Z,11.90
2023-05-16T03:41:00.833Z,11.90
2023-05-16T03:47:43.472Z,12.00
2023-05-16T03:54:25.842Z,12.00
2023-05-16T04:09:10.999Z,12.30
2023-05-16T04:15:53.472Z,12.40
2023-05-16T04:22:35.838Z,12.50
2023-05-16T04:29:18.151Z,12.60
2023-05-16T04:36:00.738Z,12.70
2023-05-16T04:42:43.250Z,12.80
2023-05-16T04:49:25.907Z,12.90
2023-05-16T04:56:08.188Z,13.00
2023-05-16T05:02:50.661Z,13.10
2023-05-16T05:09:32.997Z,13.30
2023-05-16T05:16:15.541Z,13.50
2023-05-16T05:22:58.051Z,13.50
2023-05-16T05:29:40.742Z,13.40
2023-05-16T05:36:23.115Z,13.50
2023-05-16T05:43:06.514Z,13.30
2023-05-16T05:49:49.052Z,13.20
2023-05-16T05:56:31.392Z,13.20
2023-05-16T06:03:14.833Z,13.20
2023-05-16T06:09:57.147Z,13.50
2023-05-16T06:16:40.409Z,13.50
2023-05-16T06:23:22.854Z,13.80
2023-05-16T06:30:06.031Z,13.90
2023-05-16T06:36:48.365Z,13.80
2023-05-16T06:43:30.813Z,13.80
2023-05-16T06:50:13.833Z,13.90
2023-05-16T06:56:56.383Z,14.20
2023-05-16T07:03:38.794Z,14.40
2023-05-16T07:10:21.645Z,14.10
2023-05-16T07:17:04.363Z,14.20
2023-05-16T07:23:46.898Z,14.20
2023-05-16T07:30:29.588Z,14.20
2023-05-16T07:37:13.162Z,14.00
2023-05-16T07:43:55.743Z,14.10
2023-05-16T07:50:38.116Z,14.20
2023-05-16T07:57:21.677Z,14.20
2023-05-16T08:04:05.799Z,14.20
2023-05-16T08:10:48.593Z,14.10
2023-05-16T08:17:30.980Z,14.10
2023-05-16T08:24:13.539Z,14.20
2023-05-16T08:30:56.388Z,14.00
2023-05-16T08:37:38.990Z,14.00
2023-05-16T08:44:22.236Z,13.80
2023-05-16T08:51:07.677Z,13.80
2023-05-16T08:57:51.661Z,13.50
2023-05-16T09:04:34.590Z,13.50
2023-05-16T09:11:17.136Z,13.60
2023-05-16T09:18:01.559Z,13.60
2023-05-16T09:24:45.576Z,13.60
2023-05-16T09:31:37.781Z,14.00
2023-05-16T09:38:20.345Z,14.20
2023-05-16T09:45:03.277Z,14.30
2023-05-16T09:51:46.428Z,14.60
2023-05-16T09:58:30.114Z,15.00
2023-05-16T10:05:12.725Z,14.90
2023-05-16T10:11:56.504Z,14.50
2023-05-16T10:18:40.582Z,14.50
2023-05-16T10:25:28.680Z,15.00
2023-05-16T10:32:12.762Z,15.20
2023-05-16T10:38:56.178Z,15.10
2023-05-16T10:45:42.221Z,14.60
2023-05-16T10:52:35.035Z,14.40
2023-05-16T10:59:25.106Z,14.30
2023-05-16T11:06:08.213Z,14.20
2023-05-16T11:12:52.548Z,13.90
2023-05-16T11:19:42.371Z,13.70
2023-05-16T11:26:24.924Z,13.50
2023-05-16T11:33:07.526Z,13.30
2023-05-16T11:39:50.945Z,13.10
2023-05-16T11:46:34.597Z,13.20
2023-05-16T11:53:17.258Z,13.40
2023-05-16T12:00:22.208Z,13.40
2023-05-16T12:07:05.706Z,13.20
2023-05-16T12:13:48.316Z,13.30
2023-05-16T12:20:30.754Z,13.30
2023-05-16T12:27:13.089Z,13.40
2023-05-16T12:33:55.930Z,13.50
2023-05-16T12:40:39.825Z,13.50
2023-05-16T12:47:22.440Z,13.60
2023-05-16T12:54:12.225Z,13.90
2023-05-16T13:00:54.846Z,14.20
2023-05-16T13:07:39.581Z,14.20
2023-05-16T13:14:23.201Z,13.60
2023-05-16T13:21:05.887Z,13.30
2023-05-16T13:27:49.570Z,13.30
2023-05-16T13:34:32.254Z,13.50
2023-05-16T13:41:14.593Z,13.60
2023-05-16T13:47:57.024Z,13.60
2023-05-16T13:54:41.275Z,13.40
2023-05-16T14:01:23.730Z,13.50
2023-05-16T14:08:06.733Z,13.40
2023-05-16T14:14:49.188Z,13.30
2023-05-16T14:21:31.758Z,13.40
2023-05-16T14:28:14.129Z,13.60
2023-05-16T14:34:56.671Z,13.60
2023-05-16T14:41:39.088Z,13.70
2023-05-16T14:48:21.485Z,13.80
2023-05-16T14:55:04.461Z,14.10
2023-05-16T15:01:47.019Z,14.40
2023-05-16T15:08:31.261Z,14.50
2023-05-16T15:15:16.784Z,14.50
2023-05-16T15:21:59.234Z,14.50
2023-05-16T15:28:41.580Z,14.60
2023-05-16T15:35:23.966Z,14.60
2023-05-16T15:42:11.283Z,15.00
2023-05-16T15:48:53.934Z,15.50
2023-05-16T15:55:37.410Z,15.20
2023-05-16T16:02:19.857Z,14.80
2023-05-16T16:09:02.361Z,14.80
2023-05-16T16:15:44.980Z,14.50
2023-05-16T16:22:27.593Z,14.30
2023-05-16T16:29:09.951Z,14.10
2023-05-16T16:35:53.076Z,14.30
2023-05-16T16:42:37.874Z,14.40
2023-05-16T16:49:20.850Z,14.70
2023-05-16T16:56:03.343Z,14.80
2023-05-16T17:02:45.795Z,14.90
2023-05-16T17:09:28.313Z,14.70
2023-05-16T17:16:11.315Z,14.50
2023-05-16T17:22:53.748Z,14.50
2023-05-16T17:29:37.291Z,14.50
2023-05-16T17:36:20.428Z,14.60
2023-05-16T17:43:03.014Z,14.70
2023-05-16T17:49:46.956Z,14.80
2023-05-16T17:56:29.304Z,14.70
2023-05-16T18:03:11.778Z,14.60
2023-05-16T18:09:54.473Z,14.50
2023-05-16T18:16:37.054Z,14.30
2023-05-16T18:23:19.494Z,14.20
2023-05-16T18:30:02.680Z,14.10
2023-05-16T18:36:45.145Z,14.00
2023-05-16T18:43:27.615Z,14.00
2023-05-16T18:50:10.487Z,13.90
2023-05-16T18:56:52.896Z,13.70
2023-05-16T19:03:35.520Z,13.50
2023-05-16T19:10:18.221Z,13.30
2023-05-16T19:17:00.705Z,13.10
2023-05-16T19:23:43.111Z,13.00
2023-05-16T19:30:25.763Z,12.80
2023-05-16T19:37:08.969Z,12.70
2023-05-16T19:43:52.068Z,12.40
2023-05-16T19:50:34.795Z,12.20
2023-05-16T19:57:17.267Z,12.10
2023-05-16T20:04:00.593Z,12.00
2023-05-16T20:10:45.982Z,11.70
2023-05-16T20:17:28.304Z,11.80
2023-05-16T20:24:10.697Z,11.80
2023-05-16T20:30:53.045Z,11.90
2023-05-16T20:37:35.700Z,11.80
2023-05-16T20:44:18.140Z,11.80
2023-05-16T20:51:01.691Z,11.80
2023-05-16T20:57:44.258Z,11.80
2023-05-16T21:04:26.715Z,11.70
2023-05-16T21:11:09.053Z,11.70
2023-05-16T21:17:51.602Z,11.60
2023-05-16T21:24:35.637Z,11.50
2023-05-16T21:31:18.063Z,11.50
2023-05-16T21:38:00.524Z,11.50
2023-05-16T21:44:43.044Z,11.50
2023-05-16T21:51:25.509Z,11.50
2023-05-16T22:04:54.044Z,11.10
2023-05-16T22:11:36.406Z,10.80
2023-05-16T22:18:18.919Z,10.60
2023-05-16T22:25:01.345Z,10.50
2023-05-16T22:31:43.942Z,10.30
2023-05-16T22:38:26.264Z,10.10
2023-05-16T22:45:09.036Z,9.90
2023-05-16T22:51:51.723Z,9.80
2023-05-16T22:58:34.958Z,9.80
2023-05-16T23:05:17.423Z,9.70
2023-05-16T23:12:00.466Z,9.60
2023-05-16T23:18:43.115Z,9.50
2023-05-16T23:25:25.530Z,9.40
2023-05-16T23:32:07.959Z,9.20
2023-05-16T23:38:50.832Z,9.10
2023-05-16T23:45:33.198Z,9.00
2023-05-16T23:52:17.749Z,8.90
2023-05-16T23:59:00.087Z,8.80
